Time;durP1;ratioP1;P1;durP2;ratioP2;P2;SDS_P1;SDS_P2;PMS_P1;PMS_P2;Temp;Humidity;BMP_temperature;BMP_pressure;BME280_temperature;BME280_humidity;BME280_pressure;Samples;Min_cycle;Max_cycle;Signal;HPM_P1;HPM_P2
2023/01/09 00:01:15;;;;;;;3.20;0.50;;;;;13.60;99150.00;;;;5065171;28;20194;-76
2023/01/09 00:03:43;;;;;;;1.75;0.68;;;;;13.60;99158.00;;;;5051799;28;20708;-76
2023/01/09 00:06:12;;;;;;;1.48;0.55;;;;;13.60;99151.00;;;;5049299;28;20199;-75
2023/01/09 00:08:39;;;;;;;1.40;0.45;;;;;13.50;99144.00;;;;5055577;28;20200;-76
2023/01/09 00:11:07;;;;;;;0.43;0.20;;;;;13.50;99147.00;;;;5048550;28;20196;-76
2023/01/09 00:13:34;;;;;;;1.92;0.40;;;;;13.50;99148.00;;;;5048673;28;20203;-76
2023/01/09 00:16:01;;;;;;;1.55;0.50;;;;;13.50;99147.00;;;;5049279;28;20204;-75
2023/01/09 00:18:29;;;;;;;1.85;0.55;;;;;13.40;99143.00;;;;5048539;28;20214;-76
2023/01/09 00:20:59;;;;;;;1.17;0.40;;;;;13.40;99155.00;;;;5048768;28;20210;-75
2023/01/09 00:23:27;;;;;;;0.57;0.20;;;;;13.30;99158.00;;;;5047956;28;20685;-76
2023/01/09 00:26:02;;;;;;;0.98;0.40;;;;;13.20;99153.00;;;;5053819;28;20204;-76
2023/01/09 00:28:30;;;;;;;2.60;0.50;;;;;13.30;99152.00;;;;5046858;28;20202;-76
2023/01/09 00:30:58;;;;;;;0.55;0.20;;;;;13.20;99155.00;;;;5047451;28;20203;-76
2023/01/09 00:33:28;;;;;;;1.17;0.40;;;;;13.20;99155.00;;;;5047008;28;20215;-76
2023/01/09 00:35:55;;;;;;;1.15;0.40;;;;;13.20;99159.00;;;;5046357;28;20203;-76
2023/01/09 00:38:22;;;;;;;0.95;0.40;;;;;13.10;99157.00;;;;5052660;28;20489;-76
2023/01/09 00:40:51;;;;;;;1.10;0.50;;;;;13.10;99147.00;;;;5063803;28;20196;-76
2023/01/09 00:43:20;;;;;;;0.77;0.32;;;;;13.10;99155.00;;;;5048138;28;20561;-76
2023/01/09 00:45:47;;;;;;;0.88;0.40;;;;;13.00;99146.00;;;;5048152;28;20241;-76
2023/01/09 00:48:23;;;;;;;1.02;0.40;;;;;13.00;99154.00;;;;5047913;28;20195;-76
2023/01/09 00:50:51;;;;;;;0.63;0.40;;;;;12.90;99154.00;;;;5049110;28;20207;-76
2023/01/09 00:53:23;;;;;;;1.33;0.70;;;;;12.90;99155.00;;;;5056197;28;20204;-76
2023/01/09 00:55:51;;;;;;;0.63;0.60;;;;;12.90;99162.00;;;;5048146;28;20628;-76
2023/01/09 00:58:19;;;;;;;1.40;0.63;;;;;12.90;99160.00;;;;5065291;28;20665;-76
2023/01/09 01:00:46;;;;;;;1.80;0.32;;;;;12.80;99169.00;;;;5067944;28;20206;-76
2023/01/09 01:03:13;;;;;;;3.35;0.70;;;;;12.80;99170.00;;;;5068789;28;20213;-76
2023/01/09 01:08:25;;;;;;;0.98;0.63;;;;;12.70;99169.00;;;;5051705;28;20203;-76
2023/01/09 01:10:54;;;;;;;1.85;0.70;;;;;12.70;99168.00;;;;5048657;28;20588;-76
2023/01/09 01:13:21;;;;;;;1.08;0.50;;;;;12.70;99168.00;;;;5058700;28;20191;-76
2023/01/09 01:15:49;;;;;;;1.35;0.50;;;;;12.60;99163.00;;;;5055084;28;20219;-76
2023/01/09 01:18:16;;;;;;;1.48;0.60;;;;;12.60;99166.00;;;;5047283;28;20697;-76
2023/01/09 01:20:44;;;;;;;1.17;0.60;;;;;12.60;99168.00;;;;5047540;28;20198;-76
2023/01/09 01:23:12;;;;;;;1.02;0.50;;;;;12.50;99158.00;;;;5058890;28;20233;-76
2023/01/09 01:25:40;;;;;;;1.10;0.75;;;;;12.50;99156.00;;;;5066790;28;20226;-76
2023/01/09 01:28:09;;;;;;;2.03;0.60;;;;;12.40;99147.00;;;;5047024;28;20685;-76
2023/01/09 01:30:38;;;;;;;1.52;0.73;;;;;12.40;99161.00;;;;5058999;28;20666;-76
2023/01/09 01:33:06;;;;;;;1.83;0.70;;;;;12.40;99158.00;;;;5048015;28;20227;-76
2023/01/09 01:35:33;;;;;;;2.05;0.60;;;;;12.40;99159.00;;;;5046300;28;20199;-76
2023/01/09 01:38:00;;;;;;;0.80;0.50;;;;;12.30;99160.00;;;;5047249;28;20199;-76
2023/01/09 01:40:28;;;;;;;0.80;0.50;;;;;12.30;99171.00;;;;5047324;28;20203;-75
2023/01/09 01:42:57;;;;;;;0.93;0.65;;;;;12.20;99171.00;;;;5047788;28;20204;-76
2023/01/09 01:45:27;;;;;;;1.33;0.80;;;;;12.20;99170.00;;;;5047066;28;20239;-76
2023/01/09 01:47:58;;;;;;;2.03;0.77;;;;;12.10;99178.00;;;;5047315;28;20198;-76
2023/01/09 01:50:31;;;;;;;3.22;1.02;;;;;12.10;99176.00;;;;5067184;28;20206;-76
2023/01/09 01:53:07;;;;;;;1.42;1.00;;;;;12.00;99179.00;;;;5055914;28;20195;-76
2023/01/09 01:55:36;;;;;;;1.13;0.93;;;;;12.00;99187.00;;;;5050102;28;20198;-75
2023/01/09 01:58:07;;;;;;;4.35;0.90;;;;;12.00;99187.00;;;;5051515;28;20208;-76
2023/01/09 02:00:38;;;;;;;1.40;1.20;;;;;12.00;99182.00;;;;5050168;28;20204;-76
2023/01/09 02:03:07;;;;;;;2.67;1.40;;;;;12.00;99184.00;;;;5049997;28;20196;-75
2023/01/09 02:05:36;;;;;;;1.73;0.93;;;;;11.90;99184.00;;;;5063626;28;20222;-76
2023/01/09 02:08:04;;;;;;;1.52;1.00;;;;;11.90;99187.00;;;;5051299;28;20669;-76
2023/01/09 02:10:32;;;;;;;1.50;1.23;;;;;11.90;99190.00;;;;5050134;28;20414;-76
2023/01/09 02:13:00;;;;;;;2.33;1.23;;;;;11.90;99191.00;;;;5058950;28;20199;-76
2023/01/09 02:15:30;;;;;;;1.20;0.77;;;;;11.90;99184.00;;;;5068685;28;20206;-75
2023/01/09 02:18:33;;;;;;;1.75;1.00;;;;;11.80;99181.00;;;;5069012;28;20518;-76
2023/01/09 02:21:05;;;;;;;1.50;0.90;;;;;12.00;99188.00;;;;5068643;28;20206;-76
2023/01/09 02:24:06;;;;;;;1.00;0.80;;;;;11.90;99185.00;;;;5060123;28;20203;-76
2023/01/09 02:27:03;;;;;;;1.92;0.95;;;;;11.90;99182.00;;;;5049546;28;20611;-76
2023/01/09 02:29:51;;;;;;;1.08;0.98;;;;;11.80;99180.00;;;;5049526;28;20577;-76
2023/01/09 02:32:31;;;;;;;1.85;1.15;;;;;11.90;99176.00;;;;5066088;28;20605;-76
2023/01/09 02:35:10;;;;;;;1.50;0.93;;;;;11.90;99186.00;;;;5069017;28;20201;-76
2023/01/09 02:37:45;;;;;;;1.63;0.88;;;;;11.90;99187.00;;;;5067917;28;20197;-75
2023/01/09 02:40:20;;;;;;;1.23;0.80;;;;;11.80;99195.00;;;;5064659;28;20207;-75
2023/01/09 02:42:49;;;;;;;1.33;0.88;;;;;11.80;99192.00;;;;5056255;28;20291;-76
2023/01/09 02:45:17;;;;;;;1.85;0.63;;;;;11.80;99192.00;;;;5054159;28;20576;-76
2023/01/09 02:47:46;;;;;;;2.33;1.27;;;;;11.80;99191.00;;;;5063560;28;20187;-76
2023/01/09 02:50:17;;;;;;;1.63;1.00;;;;;11.80;99193.00;;;;5068660;28;20202;-76
2023/01/09 02:53:03;;;;;;;0.93;0.82;;;;;11.70;99195.00;;;;5061289;28;20195;-76
2023/01/09 02:55:44;;;;;;;1.40;1.00;;;;;11.80;99198.00;;;;5068679;28;20195;-76
2023/01/09 02:58:19;;;;;;;2.00;1.25;;;;;11.70;99186.00;;;;5055481;28;20199;-75
2023/01/09 03:00:56;;;;;;;1.20;0.90;;;;;11.70;99191.00;;;;5049431;28;20202;-75
2023/01/09 03:03:34;;;;;;;0.98;0.75;;;;;11.70;99195.00;;;;5049038;28;20560;-76
2023/01/09 03:06:08;;;;;;;1.35;0.82;;;;;11.70;99199.00;;;;5059586;28;20235;-76
2023/01/09 03:08:39;;;;;;;1.38;1.13;;;;;11.70;99194.00;;;;5049252;28;20210;-76
2023/01/09 03:11:08;;;;;;;0.88;0.80;;;;;11.70;99197.00;;;;5069154;28;20203;-76
2023/01/09 03:13:41;;;;;;;1.45;1.10;;;;;11.70;99198.00;;;;5067262;28;20222;-75
2023/01/09 03:16:11;;;;;;;2.55;1.30;;;;;11.70;99184.00;;;;5050491;28;20203;-75
2023/01/09 03:18:41;;;;;;;2.35;1.02;;;;;11.70;99188.00;;;;5051949;28;20246;-75
2023/01/09 03:21:10;;;;;;;2.47;1.33;;;;;11.70;99176.00;;;;5049423;28;20192;-75
2023/01/09 03:23:54;;;;;;;3.05;1.48;;;;;11.60;99177.00;;;;5050907;28;20323;-76
2023/01/09 03:26:22;;;;;;;2.17;1.00;;;;;11.60;99167.00;;;;5049618;28;20227;-76
2023/01/09 03:28:50;;;;;;;2.22;0.82;;;;;11.60;99167.00;;;;5050228;28;20657;-76
2023/01/09 03:31:18;;;;;;;2.33;1.13;;;;;11.60;99165.00;;;;5058606;28;20199;-75
2023/01/09 03:33:46;;;;;;;2.38;1.10;;;;;11.60;99164.00;;;;5049451;28;20211;-75
2023/01/09 03:36:15;;;;;;;2.15;0.82;;;;;11.60;99162.00;;;;5066176;28;20195;-75
2023/01/09 03:38:43;;;;;;;2.70;1.25;;;;;11.50;99154.00;;;;5069133;28;20199;-76
2023/01/09 03:41:10;;;;;;;2.72;1.05;;;;;11.50;99163.00;;;;5068384;28;20202;-76
2023/01/09 03:43:37;;;;;;;2.92;1.00;;;;;11.50;99164.00;;;;5069554;28;21223;-75
2023/01/09 03:46:05;;;;;;;3.20;1.13;;;;;11.50;99165.00;;;;5064950;28;20765;-75
2023/01/09 03:48:32;;;;;;;4.40;1.30;;;;;11.50;99175.00;;;;5049613;28;20196;-75
2023/01/09 03:51:01;;;;;;;2.15;1.30;;;;;11.40;99163.00;;;;5049092;28;20192;-75
2023/01/09 03:53:29;;;;;;;1.73;1.20;;;;;11.40;99176.00;;;;5064067;28;20202;-75
2023/01/09 03:55:57;;;;;;;2.78;1.10;;;;;11.40;99172.00;;;;5065210;28;20612;-76
2023/01/09 03:58:26;;;;;;;3.22;1.50;;;;;11.40;99174.00;;;;5053642;28;20736;-75
2023/01/09 04:00:58;;;;;;;2.05;0.95;;;;;11.30;99185.00;;;;5060335;28;20196;-75
2023/01/09 04:03:25;;;;;;;1.60;0.93;;;;;11.30;99181.00;;;;5052075;28;20222;-76
2023/01/09 04:05:53;;;;;;;2.33;0.90;;;;;11.30;99180.00;;;;5051883;28;20727;-75
2023/01/09 04:08:22;;;;;;;1.92;0.98;;;;;11.30;99186.00;;;;5051242;28;20580;-76
2023/01/09 04:10:50;;;;;;;2.00;1.10;;;;;11.30;99188.00;;;;5068110;28;20199;-76
2023/01/09 04:13:18;;;;;;;1.30;0.73;;;;;11.30;99179.00;;;;5050156;28;20204;-75
2023/01/09 04:15:45;;;;;;;3.13;1.23;;;;;11.20;99186.00;;;;5049003;28;20191;-75
2023/01/09 04:18:13;;;;;;;1.67;0.88;;;;;11.20;99191.00;;;;5050795;28;20206;-75
2023/01/09 04:20:40;;;;;;;1.15;0.57;;;;;11.20;99184.00;;;;5068953;28;20202;-75
2023/01/09 04:23:08;;;;;;;2.40;1.08;;;;;11.20;99179.00;;;;5051071;28;20191;-75
2023/01/09 04:25:36;;;;;;;2.13;0.90;;;;;11.20;99164.00;;;;5050743;28;20230;-75
2023/01/09 04:28:04;;;;;;;1.73;0.73;;;;;11.20;99176.00;;;;5048474;28;20210;-76
2023/01/09 04:30:31;;;;;;;1.45;0.63;;;;;11.10;99178.00;;;;5050264;28;20195;-75
2023/01/09 04:32:58;;;;;;;2.35;0.70;;;;;11.20;99185.00;;;;5057240;28;20525;-75
2023/01/09 04:35:25;;;;;;;3.53;0.90;;;;;11.20;99188.00;;;;5068076;28;20673;-75
2023/01/09 04:37:53;;;;;;;1.67;0.60;;;;;11.20;99188.00;;;;5068403;28;20195;-75
2023/01/09 04:40:20;;;;;;;2.10;0.90;;;;;11.30;99190.00;;;;5051967;28;20658;-76
2023/01/09 04:42:49;;;;;;;3.30;0.90;;;;;11.30;99187.00;;;;5048318;28;20208;-76
2023/01/09 04:45:16;;;;;;;1.05;0.50;;;;;11.30;99188.00;;;;5047666;28;20242;-75
2023/01/09 04:47:44;;;;;;;1.50;0.60;;;;;11.30;99183.00;;;;5048618;28;20206;-76
2023/01/09 04:50:12;;;;;;;1.55;0.65;;;;;11.40;99185.00;;;;5048631;28;20223;-76
2023/01/09 04:52:39;;;;;;;0.95;0.38;;;;;11.40;99187.00;;;;5047915;28;20565;-76
2023/01/09 04:55:08;;;;;;;3.33;0.80;;;;;11.40;99183.00;;;;5048301;28;20199;-75
2023/01/09 04:57:35;;;;;;;5.57;0.70;;;;;11.40;99187.00;;;;5063523;28;20210;-76
2023/01/09 05:00:08;;;;;;;2.35;0.60;;;;;11.40;99189.00;;;;5063172;28;20202;-76
2023/01/09 05:02:36;;;;;;;1.50;0.77;;;;;11.50;99188.00;;;;5067342;28;20560;-76
2023/01/09 05:05:03;;;;;;;0.93;0.60;;;;;11.60;99175.00;;;;5052824;28;20224;-76
2023/01/09 05:07:30;;;;;;;1.98;0.70;;;;;11.60;99175.00;;;;5058611;28;20202;-75
2023/01/09 05:09:57;;;;;;;1.10;0.50;;;;;11.60;99182.00;;;;5060471;28;20191;-75
2023/01/09 05:12:25;;;;;;;3.08;0.63;;;;;11.70;99170.00;;;;5052167;28;20290;-76
2023/01/09 05:14:52;;;;;;;1.30;0.70;;;;;11.70;99175.00;;;;5067983;28;20210;-76
2023/01/09 05:17:20;;;;;;;3.38;0.60;;;;;11.70;99167.00;;;;5051661;28;20200;-76
2023/01/09 05:19:48;;;;;;;2.05;0.50;;;;;11.80;99171.00;;;;5048540;28;20219;-76
2023/01/09 05:22:15;;;;;;;1.00;0.47;;;;;11.80;99174.00;;;;5048447;28;20203;-76
2023/01/09 05:24:42;;;;;;;0.95;0.60;;;;;11.80;99173.00;;;;5061806;28;20199;-75
2023/01/09 05:27:10;;;;;;;1.33;0.63;;;;;11.90;99160.00;;;;5059916;28;20214;-76
2023/01/09 05:29:37;;;;;;;1.05;0.50;;;;;11.90;99164.00;;;;5055381;28;20203;-75
2023/01/09 05:32:04;;;;;;;3.67;0.70;;;;;11.90;99165.00;;;;5059905;28;20198;-75
2023/01/09 05:34:33;;;;;;;1.38;0.70;;;;;11.90;99165.00;;;;5071766;28;20301;-76
2023/01/09 05:37:00;;;;;;;1.63;0.50;;;;;11.90;99154.00;;;;5052032;28;20202;-75
2023/01/09 05:39:28;;;;;;;2.45;0.35;;;;;12.00;99167.00;;;;5050867;28;20215;-76
2023/01/09 05:41:55;;;;;;;2.92;0.68;;;;;12.00;99155.00;;;;5051460;28;20199;-75
2023/01/09 05:44:22;;;;;;;2.20;0.60;;;;;12.00;99161.00;;;;5049816;28;20204;-76
2023/01/09 05:46:49;;;;;;;2.38;0.80;;;;;12.00;99152.00;;;;5049920;28;20234;-75
2023/01/09 05:49:17;;;;;;;4.00;1.02;;;;;12.00;99153.00;;;;5067175;28;20224;-76
2023/01/09 05:51:46;;;;;;;1.42;0.88;;;;;12.00;99153.00;;;;5071839;28;20209;-75
2023/01/09 05:54:13;;;;;;;3.28;0.60;;;;;12.10;99152.00;;;;5069484;28;20672;-76
2023/01/09 05:56:41;;;;;;;2.67;0.68;;;;;12.10;99155.00;;;;5070858;28;20206;-75
2023/01/09 05:59:08;;;;;;;1.13;0.50;;;;;12.10;99141.00;;;;5071788;28;20569;-75
2023/01/09 06:01:36;;;;;;;5.28;0.70;;;;;12.10;99145.00;;;;5058327;28;20203;-75
2023/01/09 06:04:03;;;;;;;2.85;0.60;;;;;12.20;99143.00;;;;5050891;28;20204;-76
2023/01/09 06:06:30;;;;;;;1.92;0.75;;;;;12.20;99142.00;;;;5050491;28;20219;-76
2023/01/09 06:08:59;;;;;;;1.20;0.65;;;;;12.20;99146.00;;;;5056902;28;20242;-76
2023/01/09 06:11:26;;;;;;;13.82;1.00;;;;;12.20;99149.00;;;;5066057;28;20207;-76
2023/01/09 06:13:53;;;;;;;1.75;0.93;;;;;12.20;99144.00;;;;5055270;28;20576;-76
2023/01/09 06:16:20;;;;;;;3.03;0.70;;;;;12.20;99129.00;;;;5050436;28;20204;-76
2023/01/09 06:18:48;;;;;;;1.45;1.00;;;;;12.30;99137.00;;;;5050884;28;20200;-75
2023/01/09 06:21:15;;;;;;;2.25;0.80;;;;;12.30;99136.00;;;;5057771;28;20210;-76
2023/01/09 06:23:42;;;;;;;2.17;0.52;;;;;12.30;99119.00;;;;5069674;28;20191;-76
2023/01/09 06:26:11;;;;;;;2.22;0.63;;;;;12.30;99127.00;;;;5070734;28;20223;-76
2023/01/09 06:28:38;;;;;;;3.92;0.90;;;;;12.30;99122.00;;;;5064250;28;20203;-76
2023/01/09 06:31:05;;;;;;;2.50;1.05;;;;;12.30;99126.00;;;;5061201;28;20195;-76
2023/01/09 06:33:33;;;;;;;3.22;0.60;;;;;12.30;99130.00;;;;5070213;28;20221;-76
2023/01/09 06:36:00;;;;;;;1.17;0.88;;;;;12.40;99136.00;;;;5055207;28;20203;-76
2023/01/09 06:38:27;;;;;;;3.33;0.90;;;;;12.40;99135.00;;;;5061857;28;20194;-75
2023/01/09 06:40:54;;;;;;;1.38;0.98;;;;;12.40;99130.00;;;;5056930;28;20206;-76
2023/01/09 06:43:23;;;;;;;3.30;0.93;;;;;12.50;99134.00;;;;5059072;28;20210;-75
2023/01/09 06:45:50;;;;;;;1.13;0.60;;;;;12.50;99132.00;;;;5069652;28;20234;-77
2023/01/09 06:48:17;;;;;;;3.60;0.70;;;;;12.50;99137.00;;;;5058842;28;20196;-75
2023/01/09 06:50:45;;;;;;;1.35;0.70;;;;;12.50;99141.00;;;;5060809;28;20206;-76
2023/01/09 06:53:12;;;;;;;2.80;0.73;;;;;12.60;99146.00;;;;5060734;28;20275;-76
2023/01/09 06:55:40;;;;;;;2.25;0.57;;;;;12.60;99146.00;;;;5057492;28;20238;-77
2023/01/09 06:58:07;;;;;;;3.33;0.88;;;;;12.60;99148.00;;;;5050071;28;20198;-77
2023/01/09 07:00:36;;;;;;;2.33;0.60;;;;;12.60;99142.00;;;;5049800;28;20203;-76
2023/01/09 07:03:03;;;;;;;3.25;1.02;;;;;12.70;99145.00;;;;5066596;28;20215;-76
2023/01/09 07:05:31;;;;;;;2.90;0.60;;;;;12.70;99132.00;;;;5062741;28;20196;-76
2023/01/09 07:07:58;;;;;;;1.23;0.60;;;;;12.70;99145.00;;;;5049530;28;20593;-76
2023/01/09 07:10:26;;;;;;;2.03;0.77;;;;;12.70;99144.00;;;;5048873;28;20206;-76
2023/01/09 07:12:53;;;;;;;2.63;1.02;;;;;12.70;99138.00;;;;5048872;28;20206;-76
2023/01/09 07:15:20;;;;;;;2.28;0.80;;;;;12.70;99130.00;;;;5049508;28;20204;-76
2023/01/09 07:17:50;;;;;;;3.28;0.80;;;;;12.70;99137.00;;;;5049710;28;20206;-76
2023/01/09 07:20:18;;;;;;;3.83;1.50;;;;;12.70;99143.00;;;;5048720;28;20452;-76
2023/01/09 07:22:45;;;;;;;3.25;1.63;;;;;12.80;99147.00;;;;5049857;28;20199;-76
2023/01/09 07:25:13;;;;;;;2.15;0.95;;;;;12.80;99139.00;;;;5049153;28;20207;-76
2023/01/09 07:27:41;;;;;;;2.95;1.13;;;;;12.80;99145.00;;;;5051386;28;20223;-76
2023/01/09 07:30:09;;;;;;;2.10;1.05;;;;;12.80;99146.00;;;;5061206;28;20203;-76
2023/01/09 07:32:39;;;;;;;2.95;0.93;;;;;12.80;99152.00;;;;5046626;28;20583;-76
2023/01/09 07:35:09;;;;;;;1.67;0.75;;;;;12.80;99145.00;;;;5056959;28;20191;-76
2023/01/09 07:37:36;;;;;;;3.08;1.17;;;;;12.80;99152.00;;;;5051541;28;20206;-76
2023/01/09 07:40:04;;;;;;;3.33;1.10;;;;;12.80;99160.00;;;;5052818;28;20198;-75
2023/01/09 07:42:31;;;;;;;2.30;0.95;;;;;12.80;99156.00;;;;5049685;28;20662;-78
2023/01/09 07:44:58;;;;;;;2.08;0.95;;;;;12.80;99168.00;;;;5053480;28;20223;-76
2023/01/09 07:47:26;;;;;;;1.95;1.15;;;;;12.80;99171.00;;;;5061561;28;20223;-76
2023/01/09 07:49:53;;;;;;;3.30;1.15;;;;;12.80;99165.00;;;;5050178;28;20210;-76
2023/01/09 07:52:21;;;;;;;1.80;1.20;;;;;12.80;99165.00;;;;5049137;28;20227;-76
2023/01/09 07:54:49;;;;;;;2.50;1.20;;;;;12.80;99184.00;;;;5058603;28;20507;-76
2023/01/09 07:57:16;;;;;;;1.50;0.80;;;;;12.80;99179.00;;;;5058334;28;20196;-76
2023/01/09 07:59:43;;;;;;;2.97;1.20;;;;;12.80;99179.00;;;;5048485;28;20208;-76
2023/01/09 08:02:11;;;;;;;1.38;1.00;;;;;12.80;99180.00;;;;5046645;28;20565;-76
2023/01/09 08:04:38;;;;;;;2.15;0.75;;;;;12.80;99188.00;;;;5047509;28;21024;-75
2023/01/09 08:07:05;;;;;;;1.88;0.65;;;;;12.80;99189.00;;;;5048980;28;20230;-76
2023/01/09 08:09:34;;;;;;;1.30;0.30;;;;;12.80;99199.00;;;;5048138;28;20192;-76
2023/01/09 08:12:03;;;;;;;1.73;0.30;;;;;12.80;99194.00;;;;5056268;28;20215;-76
2023/01/09 08:14:31;;;;;;;0.50;0.30;;;;;12.80;99197.00;;;;5052600;28;20221;-76
2023/01/09 08:16:58;;;;;;;1.13;0.30;;;;;12.80;99206.00;;;;5054034;28;20565;-75
2023/01/09 08:19:26;;;;;;;1.85;0.20;;;;;12.80;99210.00;;;;5052492;28;20195;-76
2023/01/09 08:21:53;;;;;;;0.90;0.28;;;;;12.80;99214.00;;;;5064513;28;20283;-75
2023/01/09 08:24:21;;;;;;;0.35;0.20;;;;;12.80;99220.00;;;;5050356;28;20203;-76
2023/01/09 08:26:50;;;;;;;0.80;0.40;;;;;12.80;99224.00;;;;5049857;28;20230;-75
2023/01/09 08:29:18;;;;;;;3.30;0.60;;;;;12.80;99221.00;;;;5054578;28;20260;-76
2023/01/09 08:31:45;;;;;;;1.20;0.43;;;;;12.80;99228.00;;;;5047018;28;20755;-75
2023/01/09 08:34:13;;;;;;;1.40;0.85;;;;;12.80;99231.00;;;;5048494;28;20219;-75
2023/01/09 08:36:40;;;;;;;2.05;0.70;;;;;12.80;99226.00;;;;5064273;28;20198;-76
2023/01/09 08:39:09;;;;;;;0.55;0.43;;;;;12.80;99223.00;;;;5051636;28;20200;-76
2023/01/09 08:47:10;;;;;;;0.73;0.50;;;;;12.90;99250.00;;;;5054584;28;20229;-75
2023/01/09 08:49:38;;;;;;;0.50;0.32;;;;;12.90;99254.00;;;;5056312;28;20199;-75
2023/01/09 08:52:06;;;;;;;0.70;0.22;;;;;12.90;99261.00;;;;5056640;28;20491;-76
2023/01/09 08:54:35;;;;;;;1.02;0.47;;;;;12.90;99269.00;;;;5050923;28;20187;-76
2023/01/09 08:57:03;;;;;;;1.25;0.60;;;;;12.90;99276.00;;;;5049851;28;20195;-76
2023/01/09 08:59:31;;;;;;;0.90;0.50;;;;;13.00;99278.00;;;;5057621;28;20199;-76
2023/01/09 09:01:58;;;;;;;1.25;0.50;;;;;13.00;99279.00;;;;5052804;28;20215;-77
2023/01/09 09:04:26;;;;;;;5.28;0.70;;;;;13.00;99278.00;;;;5054645;28;20199;-76
2023/01/09 09:06:53;;;;;;;2.10;0.60;;;;;13.10;99290.00;;;;5058426;28;20222;-76
2023/01/09 09:09:21;;;;;;;1.85;0.77;;;;;13.10;99299.00;;;;5051578;28;20199;-77
2023/01/09 09:11:48;;;;;;;0.80;0.50;;;;;13.20;99312.00;;;;5060099;28;20211;-77
2023/01/09 09:17:01;;;;;;;2.53;0.70;;;;;13.20;99315.00;;;;5053555;28;20207;-76
2023/01/09 09:19:29;;;;;;;2.03;0.60;;;;;13.20;99330.00;;;;5060035;28;20201;-76
2023/01/09 09:21:57;;;;;;;1.70;0.45;;;;;13.20;99327.00;;;;5057440;28;20234;-76
2023/01/09 09:24:25;;;;;;;1.83;0.50;;;;;13.30;99333.00;;;;5070692;28;20198;-77
2023/01/09 09:26:52;;;;;;;1.45;0.60;;;;;13.30;99346.00;;;;5057856;28;20222;-76
2023/01/09 09:29:19;;;;;;;2.00;0.70;;;;;13.30;99346.00;;;;5058455;28;20196;-76
2023/01/09 09:31:47;;;;;;;6.45;0.70;;;;;13.30;99349.00;;;;5061125;28;20763;-76
2023/01/09 09:34:15;;;;;;;2.58;1.13;;;;;13.30;99352.00;;;;5056381;28;20207;-77
2023/01/09 09:36:43;;;;;;;1.35;0.55;;;;;13.40;99352.00;;;;5061287;28;20187;-76
2023/01/09 09:39:10;;;;;;;5.28;1.10;;;;;13.40;99358.00;;;;5057011;28;20203;-76
2023/01/09 09:45:12;;;;;;;2.03;0.60;;;;;13.40;99376.00;;;;5061727;28;20234;-77
2023/01/09 09:47:50;;;;;;;2.58;0.68;;;;;13.50;99388.00;;;;5049685;28;20224;-77
2023/01/09 09:50:47;;;;;;;1.67;0.47;;;;;13.40;99398.00;;;;5060927;28;20187;-76
2023/01/09 09:53:20;;;;;;;2.33;0.80;;;;;13.60;99405.00;;;;5055149;28;20191;-77
2023/01/09 09:55:49;;;;;;;1.90;0.50;;;;;13.70;99416.00;;;;5061674;28;20203;-77
2023/01/09 09:58:21;;;;;;;2.33;0.50;;;;;13.70;99426.00;;;;5059727;28;20645;-78
2023/01/09 10:00:49;;;;;;;3.97;1.23;;;;;13.80;99431.00;;;;5057606;28;20582;-77
2023/01/09 10:03:26;;;;;;;4.18;0.98;;;;;13.70;99434.00;;;;5061131;28;20210;-76
2023/01/09 10:05:57;;;;;;;2.28;0.57;;;;;13.80;99438.00;;;;5071318;28;20194;-76
2023/01/09 10:08:34;;;;;;;2.10;0.60;;;;;13.80;99443.00;;;;5058676;28;20230;-76
2023/01/09 10:11:02;;;;;;;1.77;0.47;;;;;13.80;99446.00;;;;5052128;28;20813;-76
2023/01/09 10:16:31;;;;;;;3.78;0.80;;;;;13.80;99462.00;;;;5057815;28;20230;-76
2023/01/09 10:19:10;;;;;;;6.35;0.55;;;;;13.80;99464.00;;;;5054179;28;20221;-76
2023/01/09 10:21:48;;;;;;;1.25;0.32;;;;;13.90;99473.00;;;;5054263;28;20576;-77
2023/01/09 10:24:37;;;;;;;1.83;0.43;;;;;13.90;99478.00;;;;5057313;28;20688;-76
2023/01/09 10:27:16;;;;;;;5.05;0.68;;;;;14.00;99484.00;;;;5054922;28;20218;-76
2023/01/09 10:30:06;;;;;;;1.83;0.45;;;;;13.90;99478.00;;;;5054935;28;20203;-76
2023/01/09 10:32:47;;;;;;;2.00;0.50;;;;;14.00;99492.00;;;;5061285;28;20223;-76
2023/01/09 10:35:38;;;;;;;0.85;0.38;;;;;14.10;99495.00;;;;5054801;28;20190;-76
2023/01/09 10:38:12;;;;;;;3.88;0.70;;;;;14.20;99491.00;;;;5058121;28;20585;-76
2023/01/09 10:40:44;;;;;;;2.58;0.80;;;;;14.30;99511.00;;;;5059219;28;20199;-76
2023/01/09 10:43:16;;;;;;;4.07;0.63;;;;;14.30;99511.00;;;;5054076;28;20195;-76
2023/01/09 10:45:51;;;;;;;3.45;0.70;;;;;14.40;99517.00;;;;5061278;28;20238;-76
2023/01/09 10:48:26;;;;;;;2.13;0.80;;;;;14.40;99517.00;;;;5061168;28;20227;-76
2023/01/09 10:50:56;;;;;;;2.47;0.75;;;;;14.40;99526.00;;;;5047734;28;20199;-76
2023/01/09 10:53:28;;;;;;;1.88;0.40;;;;;14.40;99540.00;;;;5053045;28;20713;-77
2023/01/09 10:56:01;;;;;;;1.48;0.55;;;;;14.30;99537.00;;;;5049013;28;20195;-76
2023/01/09 10:58:28;;;;;;;3.00;0.73;;;;;14.40;99543.00;;;;5057961;28;20272;-76
2023/01/09 11:00:58;;;;;;;2.42;0.30;;;;;14.30;99541.00;;;;5051295;28;20665;-77
2023/01/09 11:03:28;;;;;;;2.53;0.32;;;;;14.30;99539.00;;;;5056347;28;20202;-77
2023/01/09 11:05:57;;;;;;;3.83;0.50;;;;;14.30;99544.00;;;;5059326;28;20223;-77
2023/01/09 11:08:30;;;;;;;3.70;0.95;;;;;14.30;99544.00;;;;5057865;28;20449;-77
2023/01/09 11:11:00;;;;;;;2.30;0.70;;;;;14.40;99547.00;;;;5056761;28;20278;-76
2023/01/09 11:13:30;;;;;;;2.25;0.45;;;;;14.40;99553.00;;;;5062401;28;20191;-76
2023/01/09 11:16:05;;;;;;;2.83;0.60;;;;;14.40;99561.00;;;;5066572;28;20230;-76
2023/01/09 11:18:33;;;;;;;1.20;0.50;;;;;14.50;99565.00;;;;5061597;28;20241;-76
2023/01/09 11:21:14;;;;;;;2.30;0.52;;;;;14.50;99568.00;;;;5058794;28;20808;-76
2023/01/09 11:23:43;;;;;;;1.88;0.90;;;;;14.60;99569.00;;;;5054777;28;20559;-77
2023/01/09 11:26:23;;;;;;;3.53;0.98;;;;;14.50;99576.00;;;;5048273;28;20211;-78
2023/01/09 11:29:10;;;;;;;5.07;1.33;;;;;14.50;99568.00;;;;5048689;28;20227;-77
2023/01/09 11:31:39;;;;;;;2.55;1.00;;;;;14.60;99578.00;;;;5055233;28;20194;-77
2023/01/09 11:34:15;;;;;;;1.48;0.70;;;;;14.60;99588.00;;;;5054245;28;20214;-76
2023/01/09 11:36:43;;;;;;;2.20;0.73;;;;;14.60;99579.00;;;;5060058;28;20541;-75
2023/01/09 11:39:22;;;;;;;3.83;1.05;;;;;14.60;99586.00;;;;5055749;28;20195;-75
2023/01/09 11:41:53;;;;;;;2.35;0.60;;;;;14.60;99586.00;;;;5049593;28;20215;-76
2023/01/09 11:44:21;;;;;;;3.55;0.55;;;;;14.70;99587.00;;;;5059851;28;20206;-76
2023/01/09 11:46:49;;;;;;;2.25;0.50;;;;;14.80;99587.00;;;;5057625;28;20205;-75
2023/01/09 11:49:24;;;;;;;3.65;0.70;;;;;14.70;99594.00;;;;5056313;28;20213;-75
2023/01/09 11:52:14;;;;;;;1.67;0.70;;;;;14.70;99608.00;;;;5060267;28;20206;-78
2023/01/09 11:54:48;;;;;;;4.75;0.75;;;;;14.80;99604.00;;;;5051777;28;20234;-77
2023/01/09 11:57:16;;;;;;;3.75;0.82;;;;;14.80;99611.00;;;;5058726;28;20552;-77
2023/01/09 11:59:43;;;;;;;1.70;0.52;;;;;14.90;99612.00;;;;5053003;28;20199;-75
2023/01/09 12:02:38;;;;;;;3.17;0.70;;;;;14.80;99610.00;;;;5055972;28;20191;-75
2023/01/09 12:05:19;;;;;;;1.77;0.70;;;;;14.80;99607.00;;;;5049470;28;20199;-75
2023/01/09 12:08:05;;;;;;;1.75;0.60;;;;;14.80;99609.00;;;;5047906;28;20307;-76
2023/01/09 12:10:50;;;;;;;2.70;0.73;;;;;14.90;99616.00;;;;5048183;28;20194;-75
2023/01/09 12:13:34;;;;;;;1.40;0.43;;;;;14.90;99617.00;;;;5054541;28;20199;-76
2023/01/09 12:16:11;;;;;;;6.13;1.42;;;;;15.00;99622.00;;;;5054006;28;20210;-76
2023/01/09 12:18:58;;;;;;;4.20;1.00;;;;;14.90;99619.00;;;;5049578;28;21003;-76
2023/01/09 12:21:35;;;;;;;2.33;0.75;;;;;14.90;99626.00;;;;5047548;28;20199;-75
2023/01/09 12:24:26;;;;;;;5.25;0.70;;;;;14.90;99625.00;;;;5047817;28;20207;-75
2023/01/09 12:27:07;;;;;;;4.05;0.57;;;;;15.00;99626.00;;;;5049425;28;20202;-75
2023/01/09 12:29:52;;;;;;;3.28;1.00;;;;;15.00;99621.00;;;;5061550;28;20191;-76
2023/01/09 12:32:30;;;;;;;4.95;1.05;;;;;15.10;99634.00;;;;5053543;28;20213;-75
2023/01/09 12:35:06;;;;;;;5.65;1.48;;;;;15.20;99632.00;;;;5053124;28;20217;-76
2023/01/09 12:37:56;;;;;;;3.05;0.80;;;;;15.20;99640.00;;;;5068162;28;20203;-76
2023/01/09 12:40:49;;;;;;;2.85;0.90;;;;;15.20;99636.00;;;;5060045;28;20210;-76
2023/01/09 12:43:28;;;;;;;3.20;0.80;;;;;15.30;99639.00;;;;5030071;28;20194;-76
2023/01/09 12:46:05;;;;;;;3.72;0.75;;;;;15.40;99643.00;;;;5052865;28;20231;-76
2023/01/09 12:48:46;;;;;;;6.05;1.08;;;;;15.40;99640.00;;;;5056019;28;20221;-76
2023/01/09 12:51:25;;;;;;;7.53;1.40;;;;;15.50;99643.00;;;;5053776;28;20201;-75
2023/01/09 12:53:59;;;;;;;3.83;1.05;;;;;15.50;99651.00;;;;5048356;28;21012;-76